createdAt,value
2018-04-29T00:02:19.804Z,15.45
2018-04-29T00:04:49.136Z,15.41
2018-04-29T00:07:19.397Z,15.47
2018-04-29T00:09:49.772Z,16.12
2018-04-29T00:12:19.360Z,15.50
2018-04-29T00:17:48.300Z,15.31
2018-04-29T00:20:17.290Z,15.19
2018-04-29T00:22:48.534Z,15.02
2018-04-29T00:25:18.139Z,14.87
2018-04-29T00:27:48.083Z,14.76
2018-04-29T00:30:17.259Z,14.70
2018-04-29T00:32:47.268Z,14.71
2018-04-29T00:35:17.706Z,14.75
2018-04-29T00:37:48.342Z,14.86
2018-04-29T00:40:18.012Z,14.29
2018-04-29T00:42:47.808Z,14.42
2018-04-29T00:45:17.978Z,14.16
2018-04-29T00:47:53.980Z,14.45
2018-04-29T00:50:22.937Z,14.09
2018-04-29T00:52:51.960Z,14.11
2018-04-29T00:55:21.072Z,14.16
2018-04-29T00:57:50.814Z,14.21
2018-04-29T01:00:20.159Z,13.96
2018-04-29T01:02:49.404Z,13.93
2018-04-29T01:05:19.108Z,14.02
2018-04-29T01:07:48.766Z,14.07
2018-04-29T01:10:18.950Z,13.98
2018-04-29T01:12:48.793Z,13.89
2018-04-29T01:15:18.242Z,13.99
2018-04-29T01:17:48.741Z,13.56
2018-04-29T01:20:19.245Z,13.97
2018-04-29T01:22:50.530Z,13.68
2018-04-29T01:25:19.814Z,13.70
2018-04-29T01:27:49.886Z,13.72
2018-04-29T01:30:18.837Z,13.57
2018-04-29T01:32:50.240Z,13.48
2018-04-29T01:35:21.218Z,13.10
2018-04-29T01:37:51.217Z,13.63
2018-04-29T01:40:20.131Z,13.33
2018-04-29T01:42:48.524Z,13.40
2018-04-29T01:45:19.088Z,13.20
2018-04-29T01:47:49.457Z,13.14
2018-04-29T01:50:21.191Z,13.12
2018-04-29T01:52:50.635Z,13.14
2018-04-29T01:55:20.876Z,13.01
2018-04-29T01:57:50.654Z,13.31
2018-04-29T02:00:20.584Z,12.95
2018-04-29T02:02:50.505Z,13.18
2018-04-29T02:05:21.934Z,12.80
2018-04-29T02:07:51.283Z,12.66
2018-04-29T02:10:25.286Z,13.04
2018-04-29T02:12:53.759Z,12.91
2018-04-29T02:15:25.904Z,12.67
2018-04-29T02:17:54.392Z,12.48
2018-04-29T02:20:26.429Z,12.70
2018-04-29T02:22:54.832Z,12.41
2018-04-29T02:25:27.976Z,12.91
2018-04-29T02:27:56.421Z,12.72
2018-04-29T02:30:25.942Z,12.49
2018-04-29T02:32:54.303Z,12.47
2018-04-29T02:35:25.444Z,12.29
2018-04-29T02:37:55.777Z,12.54
2018-04-29T02:40:24.139Z,12.40
2018-04-29T02:42:53.070Z,12.36
2018-04-29T02:45:21.990Z,12.46
2018-04-29T02:47:51.841Z,12.45
2018-04-29T02:50:21.046Z,12.21
2018-04-29T02:52:50.938Z,12.26
2018-04-29T02:55:22.275Z,12.37
2018-04-29T02:57:51.836Z,12.44
2018-04-29T03:00:31.957Z,12.23
2018-04-29T03:03:00.328Z,12.14
2018-04-29T03:05:28.802Z,11.97
2018-04-29T03:07:57.422Z,12.10
2018-04-29T03:10:25.766Z,12.00
2018-04-29T03:12:55.970Z,11.96
2018-04-29T03:15:24.332Z,12.07
2018-04-29T03:17:55.371Z,11.82
2018-04-29T03:20:23.876Z,12.18
2018-04-29T03:22:54.119Z,11.78
2018-04-29T03:25:22.849Z,12.32
2018-04-29T03:27:53.516Z,11.78
2018-04-29T03:30:22.301Z,11.65
2018-04-29T03:32:52.231Z,12.16
2018-04-29T03:35:22.162Z,11.92
2018-04-29T03:37:52.999Z,11.92
2018-04-29T03:40:21.880Z,11.83
2018-04-29T03:45:49.563Z,12.07
2018-04-29T03:48:21.991Z,11.84
2018-04-29T03:50:51.614Z,11.98
2018-04-29T03:53:22.648Z,11.80
2018-04-29T03:55:52.118Z,11.69
2018-04-29T03:58:32.635Z,11.57
2018-04-29T04:01:14.845Z,11.66
2018-04-29T04:03:51.539Z,11.47
2018-04-29T04:06:23.242Z,11.29
2018-04-29T04:08:52.410Z,11.60
2018-04-29T04:11:23.951Z,11.66
2018-04-29T04:13:52.566Z,11.85
2018-04-29T04:16:23.455Z,11.58
2018-04-29T04:18:52.199Z,11.70
2018-04-29T04:21:24.017Z,11.37
2018-04-29T04:23:52.900Z,11.73
2018-04-29T04:26:24.892Z,11.70
2018-04-29T04:28:53.766Z,11.76
2018-04-29T04:31:24.315Z,11.77
2018-04-29T04:33:53.029Z,11.75
2018-04-29T04:36:22.860Z,11.62
2018-04-29T04:38:51.617Z,11.93
2018-04-29T04:41:21.586Z,12.12
2018-04-29T04:43:51.182Z,11.68
2018-04-29T04:46:20.700Z,11.62
2018-04-29T04:48:50.422Z,11.83
2018-04-29T04:51:20.740Z,11.87
2018-04-29T04:53:50.730Z,11.85
2018-04-29T04:56:20.830Z,12.51
2018-04-29T04:58:50.892Z,12.34
2018-04-29T05:01:22.989Z,12.43
2018-04-29T05:03:55.510Z,12.47
2018-04-29T05:06:25.918Z,12.60
2018-04-29T05:08:54.332Z,12.52
2018-04-29T05:11:22.824Z,12.68
2018-04-29T05:13:51.473Z,12.50
2018-04-29T05:16:21.358Z,12.74
2018-04-29T05:18:50.782Z,12.90
2018-04-29T05:21:19.832Z,12.93
2018-04-29T05:23:50.752Z,13.49
2018-04-29T05:26:21.392Z,13.35
2018-04-29T05:28:52.245Z,13.69
2018-04-29T05:31:22.700Z,13.54
2018-04-29T05:33:51.768Z,13.49
2018-04-29T05:36:21.411Z,13.79
2018-04-29T05:38:50.769Z,13.84
2018-04-29T05:41:21.627Z,13.72
2018-04-29T05:43:51.845Z,14.78
2018-04-29T05:46:21.673Z,14.41
2018-04-29T05:48:50.982Z,14.54
2018-04-29T05:51:20.670Z,14.59
2018-04-29T05:53:50.651Z,14.92
2018-04-29T05:56:20.279Z,14.80
2018-04-29T05:58:53.014Z,15.38
2018-04-29T06:01:25.199Z,16.50
2018-04-29T06:03:53.680Z,17.07
2018-04-29T06:06:24.451Z,18.36
2018-04-29T06:08:52.837Z,20.06
2018-04-29T06:11:24.742Z,22.05
2018-04-29T06:13:53.264Z,23.80
2018-04-29T06:16:21.701Z,25.32
2018-04-29T06:18:51.353Z,24.99
2018-04-29T06:21:20.341Z,22.94
2018-04-29T06:23:50.934Z,24.45
2018-04-29T06:26:21.073Z,24.58
2018-04-29T06:28:51.066Z,25.32
2018-04-29T06:31:21.347Z,27.62
2018-04-29T06:33:50.988Z,26.70
2018-04-29T06:36:23.660Z,25.88
2018-04-29T06:38:52.764Z,25.10
2018-04-29T06:41:23.241Z,24.30
2018-04-29T06:43:52.085Z,23.62
2018-04-29T06:46:21.975Z,24.05
2018-04-29T06:48:51.807Z,25.51
2018-04-29T06:51:21.612Z,26.67
2018-04-29T06:53:50.835Z,25.20
2018-04-29T06:56:21.323Z,25.31
2018-04-29T06:58:55.110Z,23.19
2018-04-29T07:01:25.915Z,24.34
2018-04-29T07:03:56.114Z,23.20
2018-04-29T07:06:26.259Z,23.41
2018-04-29T07:08:55.560Z,23.92
2018-04-29T07:11:25.016Z,23.81
2018-04-29T07:13:56.342Z,23.63
2018-04-29T07:16:26.373Z,25.37
2018-04-29T07:18:54.867Z,26.77
2018-04-29T07:21:23.291Z,28.08
2018-04-29T07:23:53.956Z,27.28
2018-04-29T07:26:25.165Z,26.33
2018-04-29T07:28:53.800Z,25.81
2018-04-29T07:31:29.282Z,23.10
2018-04-29T07:33:57.733Z,22.58
2018-04-29T07:36:26.800Z,22.88
2018-04-29T07:38:55.194Z,22.19
2018-04-29T07:41:25.852Z,21.26
2018-04-29T07:43:54.248Z,21.24
2018-04-29T07:46:27.523Z,21.57
2018-04-29T07:48:55.932Z,20.82
2018-04-29T07:51:26.041Z,20.74
2018-04-29T07:53:54.454Z,20.55
2018-04-29T07:56:27.295Z,20.78
2018-04-29T07:58:55.785Z,20.25
2018-04-29T08:01:27.071Z,19.27
2018-04-29T08:03:55.523Z,20.34
2018-04-29T08:06:25.348Z,20.78
2018-04-29T08:08:53.826Z,21.77
2018-04-29T08:11:25.916Z,22.60
2018-04-29T08:13:54.470Z,23.17
2018-04-29T08:16:24.665Z,23.33
2018-04-29T08:18:53.299Z,24.57
2018-04-29T08:21:25.446Z,25.03
2018-04-29T08:23:56.478Z,23.57
2018-04-29T08:26:24.848Z,23.47
2018-04-29T08:28:54.985Z,24.62
2018-04-29T08:31:26.234Z,24.69
2018-04-29T08:33:56.053Z,23.14
2018-04-29T08:36:24.485Z,23.05
2018-04-29T08:38:55.295Z,23.16
2018-04-29T08:41:26.878Z,22.99
2018-04-29T08:43:56.533Z,23.25
2018-04-29T08:46:25.972Z,22.73
2018-04-29T08:48:58.198Z,23.19
2018-04-29T08:51:27.227Z,22.77
2018-04-29T08:53:56.990Z,23.49
2018-04-29T08:56:25.816Z,23.82
2018-04-29T08:58:55.428Z,22.35
2018-04-29T09:01:26.894Z,22.82
2018-04-29T09:03:58.121Z,23.18
2018-04-29T09:06:27.768Z,21.67
2018-04-29T09:08:56.619Z,21.18
2018-04-29T09:11:26.662Z,21.26
2018-04-29T09:13:56.001Z,20.47
2018-04-29T09:16:26.089Z,19.54
2018-04-29T09:18:56.033Z,20.76
2018-04-29T09:21:25.561Z,20.98
2018-04-29T09:23:56.690Z,20.07
2018-04-29T09:26:25.184Z,19.60
2018-04-29T09:28:54.910Z,20.29
2018-04-29T09:31:25.204Z,20.03
2018-04-29T09:33:53.726Z,19.54
2018-04-29T09:36:25.560Z,20.14
2018-04-29T09:38:54.055Z,20.53
2018-04-29T09:41:23.461Z,20.64
2018-04-29T09:43:51.964Z,19.88
2018-04-29T09:46:23.772Z,20.84
2018-04-29T09:48:53.530Z,21.64
2018-04-29T09:51:23.669Z,21.97
2018-04-29T09:53:53.279Z,22.12
2018-04-29T09:56:23.971Z,21.85
2018-04-29T09:58:52.530Z,21.01
2018-04-29T10:01:26.155Z,21.38
2018-04-29T10:03:54.594Z,20.90
2018-04-29T10:06:24.245Z,21.27
2018-04-29T10:08:53.090Z,20.97
2018-04-29T10:11:22.033Z,21.24
2018-04-29T10:13:50.885Z,20.26
2018-04-29T10:16:22.763Z,21.64
2018-04-29T10:18:52.826Z,21.59
2018-04-29T10:21:22.325Z,20.49
2018-04-29T10:23:52.446Z,21.63
2018-04-29T10:26:23.590Z,22.86
2018-04-29T10:28:53.345Z,23.45
2018-04-29T10:31:23.773Z,26.01
2018-04-29T10:33:52.225Z,27.93
2018-04-29T10:36:21.360Z,26.67
2018-04-29T10:38:51.259Z,26.68
2018-04-29T10:41:21.229Z,25.76
2018-04-29T10:43:51.015Z,23.79
2018-04-29T10:46:21.914Z,23.41
2018-04-29T10:48:50.380Z,26.15
2018-04-29T10:51:19.944Z,26.73
2018-04-29T10:53:48.842Z,27.36
2018-04-29T10:56:18.939Z,27.02
2018-04-29T10:58:48.993Z,25.74
2018-04-29T11:01:18.489Z,26.96
2018-04-29T11:03:47.071Z,26.90
2018-04-29T11:06:18.029Z,26.37
2018-04-29T11:08:49.039Z,24.56
2018-04-29T11:11:19.643Z,26.33
2018-04-29T11:13:49.098Z,25.86
2018-04-29T11:16:18.206Z,26.13
2018-04-29T11:18:52.956Z,27.26
2018-04-29T11:21:22.527Z,28.12
2018-04-29T11:23:51.640Z,28.91
2018-04-29T11:26:20.514Z,29.85
2018-04-29T11:28:50.619Z,29.63
2018-04-29T11:31:22.197Z,30.25
2018-04-29T11:33:51.273Z,29.59
2018-04-29T11:36:20.877Z,29.67
2018-04-29T11:38:52.821Z,28.58
2018-04-29T11:41:22.678Z,28.17
2018-04-29T11:43:52.086Z,26.47
2018-04-29T11:46:23.794Z,24.40
2018-04-29T11:48:52.502Z,26.05
2018-04-29T11:51:26.935Z,26.80
2018-04-29T11:53:55.478Z,26.86
2018-04-29T11:56:25.120Z,26.38
2018-04-29T11:58:54.145Z,26.07
2018-04-29T12:01:24.265Z,26.61
2018-04-29T12:03:52.932Z,25.18
2018-04-29T12:06:22.234Z,24.93
2018-04-29T12:08:53.300Z,24.44
2018-04-29T12:11:22.029Z,24.76
2018-04-29T12:13:51.316Z,24.66
2018-04-29T12:16:22.012Z,23.71
2018-04-29T12:18:51.646Z,23.79
2018-04-29T12:21:20.196Z,24.31
2018-04-29T12:23:48.845Z,24.03
2018-04-29T12:26:19.495Z,24.79
2018-04-29T12:28:54.519Z,25.03
2018-04-29T12:31:23.112Z,24.49
2018-04-29T12:33:54.345Z,25.70
2018-04-29T12:36:25.640Z,26.20
2018-04-29T12:38:54.266Z,25.03
2018-04-29T12:41:27.183Z,25.54
2018-04-29T12:43:57.365Z,25.46
2018-04-29T12:46:27.842Z,25.84
2018-04-29T12:48:56.511Z,25.65
2018-04-29T12:51:25.009Z,25.74
2018-04-29T12:53:53.448Z,26.79
2018-04-29T12:56:23.786Z,25.48
2018-04-29T12:58:54.072Z,25.51
2018-04-29T13:01:24.723Z,25.31
2018-04-29T13:03:54.870Z,25.50
2018-04-29T13:06:24.828Z,25.98
2018-04-29T13:08:53.461Z,25.08
2018-04-29T13:11:23.352Z,25.13
2018-04-29T13:13:57.594Z,25.83
2018-04-29T13:16:25.959Z,25.71
2018-04-29T13:18:54.377Z,24.42
2018-04-29T13:21:24.907Z,25.09
2018-04-29T13:23:57.495Z,26.02
2018-04-29T13:26:25.940Z,25.65
2018-04-29T13:28:54.375Z,26.11
2018-04-29T13:31:23.854Z,26.64
2018-04-29T13:33:52.637Z,26.43
2018-04-29T13:36:21.337Z,27.01
2018-04-29T13:38:52.023Z,27.02
2018-04-29T13:41:21.877Z,25.78
2018-04-29T13:43:55.796Z,25.30
2018-04-29T13:46:28.270Z,24.59
2018-04-29T13:48:57.716Z,24.86
2018-04-29T13:51:27.028Z,25.39
2018-04-29T13:53:58.442Z,25.32
2018-04-29T13:56:28.434Z,26.06
2018-04-29T13:58:59.897Z,26.01
2018-04-29T14:01:28.316Z,26.10
2018-04-29T14:03:57.070Z,26.66
2018-04-29T14:06:25.516Z,27.11
2018-04-29T14:08:55.302Z,27.41
2018-04-29T14:11:23.806Z,27.42
2018-04-29T14:13:53.135Z,27.61
2018-04-29T14:16:23.147Z,27.08
2018-04-29T14:18:57.782Z,27.08
2018-04-29T14:21:26.195Z,27.49
2018-04-29T14:23:57.658Z,27.33
2018-04-29T14:26:27.023Z,26.51
2018-04-29T14:28:58.050Z,26.59
2018-04-29T14:31:26.836Z,26.51
2018-04-29T14:33:56.233Z,26.56
2018-04-29T14:36:25.895Z,25.73
2018-04-29T14:38:54.313Z,26.68
2018-04-29T14:41:22.702Z,26.44
2018-04-29T14:43:52.462Z,26.30
2018-04-29T14:46:22.717Z,26.32
2018-04-29T14:48:52.375Z,26.53
2018-04-29T14:51:21.881Z,26.02
2018-04-29T14:53:51.479Z,25.32
2018-04-29T14:56:22.132Z,24.65
2018-04-29T14:58:52.586Z,26.33
2018-04-29T15:01:21.725Z,26.02
2018-04-29T15:03:50.862Z,26.18
2018-04-29T15:06:20.993Z,25.26
2018-04-29T15:08:51.910Z,25.56
2018-04-29T15:11:24.537Z,24.61
2018-04-29T15:13:55.436Z,25.11
2018-04-29T15:19:17.318Z,25.30
2018-04-29T15:21:47.622Z,25.63
2018-04-29T15:24:17.781Z,25.02
2018-04-29T15:27:00.833Z,24.77
2018-04-29T15:29:30.275Z,25.78
2018-04-29T15:31:58.740Z,25.20
2018-04-29T15:34:27.498Z,24.74
2018-04-29T15:36:55.896Z,25.36
2018-04-29T15:39:28.322Z,24.74
2018-04-29T15:42:05.688Z,25.49
2018-04-29T15:44:56.439Z,25.72
2018-04-29T15:47:31.614Z,25.92
2018-04-29T15:50:00.080Z,27.10
2018-04-29T15:52:28.447Z,27.09
2018-04-29T15:54:56.861Z,27.06
2018-04-29T15:57:25.228Z,26.12
2018-04-29T15:59:58.556Z,25.64
2018-04-29T16:02:28.353Z,25.89
2018-04-29T16:04:57.702Z,25.57
2018-04-29T16:07:26.799Z,25.82
2018-04-29T16:09:57.969Z,25.54
2018-04-29T16:12:27.755Z,26.18
2018-04-29T16:14:58.030Z,25.91
2018-04-29T16:17:26.894Z,26.55
2018-04-29T16:19:56.155Z,25.46
2018-04-29T16:22:25.943Z,24.97
2018-04-29T16:24:55.773Z,25.13
2018-04-29T16:27:24.290Z,25.08
2018-04-29T16:29:54.602Z,25.55
2018-04-29T16:32:23.078Z,25.80
2018-04-29T16:34:52.830Z,25.89
2018-04-29T16:37:21.853Z,25.68
2018-04-29T16:39:51.229Z,25.58
2018-04-29T16:42:21.237Z,25.41
2018-04-29T16:44:52.095Z,26.08
2018-04-29T16:47:26.299Z,26.57
2018-04-29T16:49:54.786Z,25.71
2018-04-29T16:52:26.399Z,25.91
2018-04-29T16:55:20.567Z,26.80
2018-04-29T16:57:51.599Z,25.89
2018-04-29T17:00:21.949Z,26.23
2018-04-29T17:02:51.162Z,25.96
2018-04-29T17:05:20.642Z,24.71
2018-04-29T17:07:50.199Z,25.01
2018-04-29T17:10:25.697Z,25.31
2018-04-29T17:12:55.577Z,25.81
2018-04-29T17:15:24.409Z,26.00
2018-04-29T17:17:53.369Z,25.91
2018-04-29T17:20:22.386Z,25.69
2018-04-29T17:22:51.881Z,25.65
2018-04-29T17:25:21.519Z,25.15
2018-04-29T17:27:50.935Z,25.33
2018-04-29T17:30:20.672Z,25.11
2018-04-29T17:32:50.708Z,25.68
2018-04-29T17:35:21.170Z,23.95
2018-04-29T17:37:50.632Z,25.19
2018-04-29T17:40:21.595Z,24.79
2018-04-29T17:42:53.984Z,25.05
2018-04-29T17:45:24.764Z,25.21
2018-04-29T17:47:53.711Z,23.55
2018-04-29T17:50:25.988Z,23.97
2018-04-29T17:52:55.352Z,24.33
2018-04-29T17:55:24.446Z,24.58
2018-04-29T17:57:53.285Z,24.72
2018-04-29T18:00:22.255Z,25.09
2018-04-29T18:02:51.606Z,24.86
2018-04-29T18:05:22.482Z,24.60
2018-04-29T18:07:51.602Z,24.62
2018-04-29T18:10:20.861Z,24.21
2018-04-29T18:12:53.073Z,23.77
2018-04-29T18:15:27.414Z,23.98
2018-04-29T18:17:57.118Z,23.35
2018-04-29T18:20:25.542Z,24.43
2018-04-29T18:22:55.019Z,23.85
2018-04-29T18:25:23.475Z,24.08
2018-04-29T18:27:54.055Z,23.21
2018-04-29T18:30:23.408Z,23.80
2018-04-29T18:32:53.058Z,23.28
2018-04-29T18:35:22.780Z,23.52
2018-04-29T18:37:57.513Z,22.24
2018-04-29T18:40:28.455Z,23.81
2018-04-29T18:42:56.882Z,23.56
2018-04-29T18:45:25.330Z,22.63
2018-04-29T18:47:56.086Z,23.41
2018-04-29T18:50:25.673Z,23.10
2018-04-29T18:52:55.620Z,22.77
2018-04-29T18:55:24.708Z,22.86
2018-04-29T18:57:54.174Z,23.01
2018-04-29T19:00:24.621Z,22.73
2018-04-29T19:02:53.065Z,22.93
2018-04-29T19:05:24.103Z,22.90
2018-04-29T19:07:54.812Z,23.36
2018-04-29T19:10:23.632Z,23.23
2018-04-29T19:12:53.479Z,23.08
2018-04-29T19:15:22.372Z,23.28
2018-04-29T19:17:52.610Z,23.43
2018-04-29T19:20:24.772Z,23.25
2018-04-29T19:22:53.343Z,23.67
2018-04-29T19:25:21.928Z,23.51
2018-04-29T19:27:57.509Z,23.51
2018-04-29T19:30:29.913Z,23.41
2018-04-29T19:35:28.013Z,22.80
2018-04-29T19:38:08.671Z,22.73
2018-04-29T19:40:43.634Z,22.99
2018-04-29T19:43:14.290Z,23.02
2018-04-29T19:45:42.905Z,22.94
2018-04-29T19:48:13.111Z,22.91
2018-04-29T19:50:48.050Z,22.24
2018-04-29T19:53:22.824Z,22.53
2018-04-29T19:55:57.651Z,22.79
2018-04-29T19:58:27.804Z,22.43
2018-04-29T20:00:59.264Z,22.33
2018-04-29T20:03:29.037Z,22.47
2018-04-29T20:05:58.555Z,22.24
2018-04-29T20:08:29.802Z,22.22
2018-04-29T20:10:59.274Z,22.24
2018-04-29T20:13:31.711Z,22.10
2018-04-29T20:16:01.955Z,22.22
2018-04-29T20:18:31.955Z,21.88
2018-04-29T20:21:00.348Z,21.91
2018-04-29T20:23:28.752Z,22.22
2018-04-29T20:25:59.975Z,21.58
2018-04-29T20:28:28.538Z,21.72
2018-04-29T20:30:56.965Z,21.83
2018-04-29T20:33:25.397Z,21.48
2018-04-29T20:35:53.890Z,22.20
2018-04-29T20:38:22.287Z,22.40
2018-04-29T20:40:50.676Z,22.05
2018-04-29T20:43:19.053Z,21.79
2018-04-29T20:45:47.418Z,22.05
2018-04-29T20:48:15.815Z,21.86
2018-04-29T20:50:44.236Z,21.88
2018-04-29T20:53:12.635Z,21.89
2018-04-29T20:55:41.034Z,21.50
2018-04-29T20:58:09.396Z,21.35
2018-04-29T21:00:37.824Z,21.42
2018-04-29T21:03:06.217Z,21.57
2018-04-29T21:05:34.587Z,21.57
2018-04-29T21:08:03.044Z,21.30
2018-04-29T21:10:31.375Z,21.58
2018-04-29T21:12:59.801Z,21.10
2018-04-29T21:15:28.158Z,20.86
2018-04-29T21:17:56.518Z,21.30
2018-04-29T21:20:24.877Z,21.51
2018-04-29T21:22:53.378Z,21.26
2018-04-29T21:25:21.801Z,21.50
2018-04-29T21:27:50.328Z,21.33
2018-04-29T21:30:18.760Z,21.26
2018-04-29T21:32:47.340Z,20.98
2018-04-29T21:35:15.742Z,21.23
2018-04-29T21:37:44.142Z,21.34
2018-04-29T21:40:12.559Z,21.41
2018-04-29T21:42:41.021Z,20.42
2018-04-29T21:45:09.519Z,20.83
2018-04-29T21:47:37.928Z,20.94
2018-04-29T21:50:06.444Z,20.45
2018-04-29T21:52:34.861Z,21.22
2018-04-29T21:55:03.354Z,21.55
2018-04-29T21:57:31.726Z,20.53
2018-04-29T22:00:00.125Z,20.79
2018-04-29T22:02:28.538Z,20.66
2018-04-29T22:04:56.907Z,20.96
2018-04-29T22:07:25.357Z,21.61
2018-04-29T22:09:53.765Z,21.30
2018-04-29T22:12:22.172Z,20.36
2018-04-29T22:14:50.555Z,21.57
2018-04-29T22:17:18.955Z,20.85
2018-04-29T22:19:47.342Z,21.61
2018-04-29T22:22:16.512Z,22.02
2018-04-29T22:24:44.933Z,21.80
2018-04-29T22:27:13.342Z,20.98
2018-04-29T22:29:41.710Z,21.62
2018-04-29T22:32:10.078Z,21.39
2018-04-29T22:34:38.463Z,21.31
2018-04-29T22:37:07.040Z,20.90
2018-04-29T22:39:35.365Z,21.55
2018-04-29T22:42:03.835Z,21.59
2018-04-29T22:44:32.202Z,22.03
2018-04-29T22:47:00.702Z,21.91
2018-04-29T22:49:29.202Z,21.69
2018-04-29T22:51:57.592Z,21.63
2018-04-29T22:54:25.981Z,21.47
2018-04-29T22:56:54.397Z,21.42
2018-04-29T22:59:23.807Z,21.62
2018-04-29T23:01:52.282Z,21.55
2018-04-29T23:04:20.710Z,22.22
2018-04-29T23:06:49.110Z,21.48
2018-04-29T23:09:17.500Z,22.49
2018-04-29T23:11:45.931Z,22.20
2018-04-29T23:14:14.382Z,22.62
2018-04-29T23:16:42.778Z,22.21
2018-04-29T23:19:12.148Z,22.34
2018-04-29T23:21:40.577Z,22.43
2018-04-29T23:24:08.982Z,21.20
2018-04-29T23:26:37.437Z,21.61
2018-04-29T23:29:05.876Z,22.44
2018-04-29T23:31:34.315Z,22.45
2018-04-29T23:34:02.742Z,21.98
2018-04-29T23:36:31.111Z,22.19
2018-04-29T23:38:59.546Z,21.87
2018-04-29T23:41:27.962Z,21.92
2018-04-29T23:43:56.443Z,21.54
2018-04-29T23:46:24.879Z,21.88
2018-04-29T23:48:53.339Z,21.72
2018-04-29T23:51:21.760Z,21.77
2018-04-29T23:53:50.169Z,21.42
2018-04-29T23:56:18.569Z,21.53
2018-04-29T23:58:46.988Z,21.59
